Endurance — WDE9586 — position and weather

sailwx.info

Track history (hours):
 
Tides and Currents Weather Stations Pressure Air Temp Water Temp Dewpoint Dewpoint Depression Visibility Wind Speed Wind Dir Waves Ship Positions

Endurance

Owner: TOTE Services, Inc., Jacksonville, FL. More information available from US FCC via Universal Licensing System and Coast Guard Vessel Documentation Center.

Last reported at 2018-May-22 21:00 UTC. Time now 2018-May-22 21:17 UTC.
Position N 49°19' W 005°25'.

Length 264 m; draft 8.3 m.

Type: Ship (hazmat cat B). MMSI: 366479000.

Date/timePositionNaut miles runAvg speedWind from/ knotsBaromVisibWave heightAir tempDewpointWater temp
2018-May-22 21:00N 49°19' W 005°25'816.9
2018-May-22 20:30N 49°21' W 005°13'1317.1
2018-May-22 19:45N 49°26' W 004°54'417.5
2018-May-22 19:30N 49°28' W 004°48'917.6
2018-May-22 19:00N 49°31' W 004°36'917.8
2018-May-22 18:30N 49°35' W 004°23'2218.1
2018-May-22 17:18N 49°43' W 003°52'518.1
2018-May-22 17:00N 49°46' W 003°45'917.9
2018-May-22 16:31N 49°49' W 003°32'917.7
2018-May-22 16:00N 49°53' W 003°19'917.4
2018-May-22 15:30N 49°56' W 003°06'917.0
2018-May-22 15:00N 49°59' W 002°54'816.5
2018-May-22 14:30N 50°01' W 002°42'1715.7
2018-May-22 13:25N 50°06' W 002°17'615.1
2018-May-22 13:00N 50°08' W 002°07'815.1
2018-May-22 12:30N 50°10' W 001°56'815.4
2018-May-22 12:01N 50°11' W 001°44'816.0
2018-May-22 11:31N 50°14' W 001°32'816.7
2018-May-22 11:00N 50°16' W 001°20'917.7
2018-May-22 10:30N 50°18' W 001°06'918.7
2018-May-22 10:00N 50°21' W 000°52'918.9
2018-May-22 09:30N 50°23' W 000°38'1019.0
2018-May-22 09:00N 50°26' W 000°24'8517.8
2018-May-22 09:00N 50°24' W 000°36'1836.5 160 / 41015.4 5.4 16.512.014.0
2018-May-22 08:30N 50°29' W 000°09'918.9
2018-May-22 08:00N 50°31' E 000°05'918.7
2018-May-22 07:30N 50°34' E 000°19'918.4
2018-May-22 07:00N 50°37' E 000°33'918.0
2018-May-22 06:30N 50°41' E 000°45'917.4
2018-May-22 06:00N 50°46' E 000°57'3186.0
2018-May-22 06:00N 50°48' E 001°00'812.5 080 / 81013.510.8 14.010.214.0
2018-May-22 05:22N 50°52' E 001°11'615.9
2018-May-22 05:00N 50°55' E 001°18'815.5
2018-May-22 04:30N 51°01' E 001°26'815.9
2018-May-22 04:00N 51°07' E 001°34'816.3
2018-May-22 03:30N 51°12' E 001°44'917.1
2018-May-22 03:00N 51°20' E 001°51'2174.3
2018-May-22 03:00N 51°18' E 001°48'1021.6 300 / 101012.210.8 14.010.214.0
2018-May-22 02:30N 51°24' E 002°01'917.5
2018-May-22 02:01N 51°21' E 002°14'1019.8
2018-May-22 01:30N 51°22' E 002°30'817.0
2018-May-22 01:00N 51°22' E 002°43'815.7
2018-May-22 00:30N 51°23' E 002°56'917.9
2018-May-21 23:59N 51°24' E 003°11'1018.9
2018-May-21 23:27N 51°25' E 003°26'714.5
2018-May-21 22:59N 51°26' E 003°37'611.4
2018-May-21 22:30N 51°23' E 003°44'714.5
2018-May-21 22:00N 51°22' E 003°55'5 9.6
2018-May-21 21:30N 51°25' E 004°02'510.7
2018-May-21 21:00N 51°24' E 004°11'510.5
2018-May-21 20:31N 51°20' E 004°16'3 6.5
2018-May-21 20:00N 51°17' E 004°15'0 0.0
2018-May-21 19:30N 51°17' E 004°15'0 0.0
2018-May-21 19:01N 51°17' E 004°15'1 1.0
2018-May-21 18:31N 51°16' E 004°14'0 0.6
2018-May-21 17:59N 51°16' E 004°14'0 0.0
2018-May-21 17:29N 51°16' E 004°14'0 0.0
2018-May-21 16:59N 51°16' E 004°14'0 0.0
2018-May-21 16:27N 51°16' E 004°14'0 0.0
2018-May-21 16:00N 51°16' E 004°14'0 0.0
2018-May-21 15:18N 51°16' E 004°14'0 0.0
2018-May-21 14:33N 51°16' E 004°14'0 0.0
2018-May-21 14:30N 51°16' E 004°14'0 0.0
2018-May-21 12:51N 51°16' E 004°14'0 0.0
2018-May-21 12:30N 51°16' E 004°14'0 0.0
2018-May-21 12:00N 51°16' E 004°14'0 0.0
2018-May-21 11:30N 51°16' E 004°14'0 0.0
2018-May-21 10:51N 51°16' E 004°14'0 0.0
2018-May-21 10:27N 51°16' E 004°14'0 0.0
2018-May-21 09:51N 51°16' E 004°14'0 0.0
2018-May-21 09:27N 51°16' E 004°14'0 0.0
2018-May-21 09:00N 51°16' E 004°14'0 0.0
2018-May-21 08:21N 51°16' E 004°14'0 0.0
2018-May-21 07:57N 51°16' E 004°14'0 0.0
2018-May-21 07:27N 51°16' E 004°14'0 0.0
2018-May-21 07:00N 51°16' E 004°14'0 0.0
2018-May-21 06:18N 51°16' E 004°14'0 0.0
2018-May-21 06:00N 51°16' E 004°14'0 0.0
2018-May-21 05:24N 51°16' E 004°14'0 0.0
2018-May-21 04:57N 51°16' E 004°14'0 0.0
2018-May-21 04:27N 51°16' E 004°14'0 0.0
2018-May-21 04:00N 51°16' E 004°14'0 0.0
2018-May-21 03:24N 51°16' E 004°14'0 0.0
2018-May-21 02:57N 51°16' E 004°14'0 0.0
2018-May-21 02:27N 51°16' E 004°14'0 0.0
2018-May-21 02:00N 51°16' E 004°14'0 0.0
2018-May-21 01:27N 51°16' E 004°14'0 0.0
2018-May-21 01:00N 51°16' E 004°14'0 0.0
2018-May-21 00:30N 51°16' E 004°14'0 0.0
2018-May-21 00:00N 51°16' E 004°14'0 0.0
2018-May-20 23:27N 51°16' E 004°14'0 0.0
2018-May-20 23:00N 51°16' E 004°14'0 0.0
2018-May-20 22:27N 51°16' E 004°14'0 0.0
2018-May-20 22:00N 51°16' E 004°14'0 0.0
2018-May-20 21:30N 51°16' E 004°14'0 0.0
2018-May-20 21:00N 51°16' E 004°14'0 0.0
2018-May-20 20:30N 51°16' E 004°14'0 0.0
2018-May-20 19:57N 51°16' E 004°14'0 0.0
2018-May-20 19:27N 51°16' E 004°14'0 0.0
2018-May-20 19:00N 51°16' E 004°14'0 0.0
2018-May-20 18:24N 51°16' E 004°14'0 0.0
2018-May-20 18:00N 51°16' E 004°14'0 0.0
2018-May-20 17:27N 51°16' E 004°14'0 0.0
2018-May-20 16:57N 51°16' E 004°14'0 0.0
2018-May-20 16:24N 51°16' E 004°14'0 0.0
2018-May-20 15:51N 51°16' E 004°14'0 0.0
2018-May-20 15:12N 51°16' E 004°14'0 0.0
2018-May-20 14:54N 51°16' E 004°14'0 0.0
2018-May-20 14:12N 51°16' E 004°14'0 0.0
2018-May-20 13:57N 51°16' E 004°14'0 0.0
2018-May-20 13:21N 51°16' E 004°14'0 0.0
2018-May-20 12:48N 51°16' E 004°14'0 0.0
2018-May-20 12:30N 51°16' E 004°14'0 0.0
2018-May-20 12:00N 51°16' E 004°14'0 0.0
2018-May-20 11:27N 51°16' E 004°14'0 0.0
2018-May-20 10:48N 51°16' E 004°14'0 0.0
2018-May-20 10:30N 51°16' E 004°14'0 0.0
2018-May-20 09:57N 51°16' E 004°14'0 0.0
2018-May-20 09:12N 51°16' E 004°14'0 0.0
2018-May-20 08:51N 51°16' E 004°14'0 0.0
2018-May-20 08:21N 51°16' E 004°14'0 0.0
2018-May-20 07:45N 51°16' E 004°14'0 0.0
2018-May-20 07:21N 51°16' E 004°14'0 0.0
2018-May-20 06:57N 51°16' E 004°14'0 0.0
2018-May-20 06:18N 51°16' E 004°14'0 0.0
2018-May-20 05:57N 51°16' E 004°14'0 0.0
2018-May-20 05:30N 51°16' E 004°14'0 0.0
2018-May-20 05:00N 51°16' E 004°14'0 0.0
2018-May-20 04:30N 51°16' E 004°14'0 0.0
2018-May-20 04:00N 51°16' E 004°14'0 0.0
2018-May-20 03:30N 51°16' E 004°14'0 0.0
2018-May-20 03:00N 51°16' E 004°14'0 0.0
2018-May-20 02:27N 51°16' E 004°14'0 0.0
2018-May-20 02:00N 51°16' E 004°14'0 0.0
2018-May-20 01:30N 51°16' E 004°14'0 0.0
2018-May-20 00:57N 51°16' E 004°14'0 0.0
2018-May-20 00:30N 51°16' E 004°14'0 0.0
2018-May-20 00:00N 51°16' E 004°14'0 0.0
2018-May-19 23:24N 51°16' E 004°14'0 0.0
2018-May-19 22:54N 51°16' E 004°14'0 0.0
2018-May-19 22:30N 51°16' E 004°14'0 0.0
2018-May-19 21:57N 51°16' E 004°14'0 0.0
2018-May-19 21:30N 51°16' E 004°14'0 0.0
2018-May-19 21:00N 51°16' E 004°14'0 0.0
2018-May-19 20:27N 51°16' E 004°14'0 0.0
2018-May-19 19:45N 51°16' E 004°14'0 0.0
2018-May-19 19:24N 51°16' E 004°14'0 0.0
2018-May-19 19:00N 51°16' E 004°14'0 0.0
2018-May-19 18:30N 51°16' E 004°14'0 0.0
2018-May-19 18:00N 51°16' E 004°14'0 0.0
2018-May-19 17:24N 51°16' E 004°14'0 0.0
2018-May-19 17:00N 51°16' E 004°14'0 0.0
2018-May-19 16:30N 51°16' E 004°14'0 0.0
2018-May-19 15:57N 51°16' E 004°14'0 0.0
2018-May-19 15:30N 51°16' E 004°14'0 0.0
2018-May-19 14:57N 51°16' E 004°14'0 0.0
2018-May-19 14:24N 51°16' E 004°14'0 0.0
2018-May-19 14:00N 51°16' E 004°14'0 0.0
2018-May-19 13:30N 51°16' E 004°14'0 0.0
2018-May-19 12:42N 51°16' E 004°14'0 0.0
2018-May-19 12:27N 51°16' E 004°14'0 0.0
2018-May-19 12:00N 51°16' E 004°14'0 0.0
2018-May-19 11:30N 51°16' E 004°14'0 0.0
2018-May-19 11:00N 51°16' E 004°14'0 0.0
2018-May-19 10:27N 51°16' E 004°14'0 0.0
2018-May-19 10:00N 51°16' E 004°14'0 0.0
2018-May-19 09:30N 51°16' E 004°14'0 0.0
2018-May-19 09:00N 51°16' E 004°14'0 0.0
2018-May-19 08:24N 51°16' E 004°14'0 0.0
2018-May-19 08:00N 51°16' E 004°14'0 0.0
2018-May-19 07:12N 51°16' E 004°14'0 0.0
2018-May-19 06:54N 51°16' E 004°14'0 0.0
2018-May-19 06:24N 51°16' E 004°14'0 0.0
2018-May-19 06:00N 51°16' E 004°14'0 0.0
2018-May-19 05:30N 51°16' E 004°14'0 0.0
2018-May-19 05:00N 51°16' E 004°14'0 0.0
2018-May-19 04:27N 51°16' E 004°14'0 0.0
2018-May-19 04:00N 51°16' E 004°14'0 0.0
2018-May-19 03:30N 51°16' E 004°14'0 0.0
2018-May-19 02:57N 51°16' E 004°14'0 0.0
2018-May-19 02:27N 51°16' E 004°14'0 0.0
2018-May-19 02:00N 51°16' E 004°14'0 0.0
2018-May-19 01:30N 51°16' E 004°14'0 0.0
2018-May-19 00:54N 51°16' E 004°14'0 0.0
2018-May-19 00:30N 51°16' E 004°14'0 0.0
2018-May-19 00:00N 51°16' E 004°14'0 0.0
2018-May-18 23:30N 51°16' E 004°14'0 0.0
2018-May-18 23:00N 51°16' E 004°14'0 0.0
2018-May-18 22:24N 51°16' E 004°14'0 0.0
2018-May-18 21:54N 51°16' E 004°14'0 0.0
2018-May-18 21:30N 51°16' E 004°14'0 0.0
2018-May-18 20:51N 51°16' E 004°14'0 0.0
2018-May-18 20:30N 51°16' E 004°14'0 0.0
2018-May-18 20:00N 51°16' E 004°14'0 0.0
2018-May-18 19:21N 51°16' E 004°14'0 0.0
2018-May-18 19:00N 51°16' E 004°14'0 0.0
2018-May-18 18:27N 51°16' E 004°14'0 0.0
2018-May-18 18:00N 51°16' E 004°14'0 0.0
2018-May-18 17:30N 51°16' E 004°14'0 0.0
2018-May-18 16:42N 51°16' E 004°14'0 0.0
2018-May-18 16:24N 51°16' E 004°14'0 0.0
2018-May-18 15:57N 51°16' E 004°14'0 0.0
2018-May-18 15:27N 51°16' E 004°14'0 0.0
2018-May-18 15:00N 51°16' E 004°14'0 0.0
2018-May-18 14:30N 51°16' E 004°14'0 0.0
2018-May-18 14:00N 51°16' E 004°14'0 0.0
2018-May-18 13:30N 51°16' E 004°14'0 0.0
2018-May-18 12:39N 51°16' E 004°14'0 0.0
2018-May-18 12:30N 51°16' E 004°14'0 0.0
2018-May-18 11:39N 51°16' E 004°14'0 0.0
2018-May-18 11:30N 51°16' E 004°14'0 0.0
2018-May-18 11:00N 51°16' E 004°14'0 0.0
2018-May-18 10:30N 51°16' E 004°14'0 0.0
2018-May-18 09:57N 51°16' E 004°14'0 0.0
2018-May-18 09:30N 51°16' E 004°14'0 0.0
2018-May-18 08:57N 51°16' E 004°14'0 0.1
2018-May-18 08:30N 51°16' E 004°14'0 0.1
2018-May-18 08:00N 51°16' E 004°14'0 0.0
2018-May-18 07:30N 51°16' E 004°14'0 0.0
2018-May-18 07:00N 51°16' E 004°14'0 0.0
2018-May-18 06:30N 51°16' E 004°14'0 0.0
2018-May-18 06:00N 51°16' E 004°14'0 0.0
2018-May-18 05:30N 51°16' E 004°14'0 0.0
2018-May-18 05:00N 51°16' E 004°14'0 0.0
2018-May-18 04:30N 51°16' E 004°14'0 0.0
2018-May-18 04:00N 51°16' E 004°14'0 0.0
2018-May-18 03:30N 51°16' E 004°14'0 0.0
2018-May-18 03:00N 51°16' E 004°14'0 0.0
2018-May-18 02:30N 51°16' E 004°14'0 0.0
2018-May-18 01:57N 51°16' E 004°14'0 0.0
2018-May-18 01:30N 51°16' E 004°14'0 0.0
2018-May-18 01:00N 51°16' E 004°14'0 0.0
2018-May-18 00:30N 51°16' E 004°14'0 0.0
2018-May-18 00:00N 51°16' E 004°14'0 0.0
2018-May-17 23:30N 51°16' E 004°14'0 0.0
2018-May-17 23:00N 51°16' E 004°14'0 0.0
2018-May-17 22:27N 51°16' E 004°14'0 0.0
2018-May-17 22:00N 51°16' E 004°14'0 0.0
2018-May-17 21:27N 51°16' E 004°14'0 0.0
2018-May-17 21:00N 51°16' E 004°14'0 0.0
2018-May-17 20:30N 51°16' E 004°14'0 0.0
2018-May-17 20:00N 51°16' E 004°14'0 0.0
2018-May-17 19:30N 51°16' E 004°14'0 0.0
2018-May-17 19:00N 51°16' E 004°14'0 0.0
2018-May-17 18:30N 51°16' E 004°14'1 2.0
2018-May-17 18:00N 51°16' E 004°16'1 1.2
2018-May-17 17:30N 51°16' E 004°17'0 0.0
2018-May-17 17:01N 51°16' E 004°17'0 0.8
2018-May-17 16:30N 51°16' E 004°17'2 3.9
2018-May-17 15:59N 51°18' E 004°17'5 9.7
2018-May-17 15:30N 51°22' E 004°13'4 7.6
2018-May-17 15:00N 51°22' E 004°07'612.1
2018-May-17 14:30N 51°26' E 004°00'815.0
2018-May-17 14:00N 51°21' E 003°52'713.0
2018-May-17 13:30N 51°24' E 003°43'4 8.6
2018-May-17 13:00N 51°25' E 003°36'4 8.4
2018-May-17 12:30N 51°25' E 003°29'4 8.1
2018-May-17 12:00N 51°24' E 003°23'5 9.4
2018-May-17 11:30N 51°25' E 003°16'612.6
2018-May-17 11:00N 51°24' E 003°05'510.6
2018-May-17 10:30N 51°23' E 002°57'611.2
2018-May-17 10:00N 51°22' E 002°48'510.9
2018-May-17 09:30N 51°22' E 002°40'510.3
2018-May-17 09:00N 51°22' E 002°31'3 6.5
2018-May-17 08:30N 51°21' E 002°26'5 9.3
2018-May-17 08:00N 51°19' E 002°20'510.2
2018-May-17 07:30N 51°16' E 002°13'510.5
2018-May-17 07:00N 51°14' E 002°06'510.6
2018-May-17 06:30N 51°11' E 001°58'510.8
2018-May-17 06:00N 51°08' E 001°51'6629.0
2018-May-17 06:00N 51°06' E 001°42'2 5.0 030 / 261025.5 5.4 11.0 6.812.0
2018-May-17 05:30N 51°04' E 001°45'511.0
2018-May-17 05:00N 51°00' E 001°39'611.4
2018-May-17 04:29N 50°56' E 001°33'812.1
2018-May-17 03:51N 50°49' E 001°26'716.5
2018-May-17 03:27N 50°43' E 001°23'1737.3
2018-May-17 03:00N 50°30' E 001°06'8107.6 010 / 351023.9 5.4 11.0 6.812.0
2018-May-17 02:55N 50°37' E 001°14'816.4
2018-May-17 02:25N 50°31' E 001°04'716.2
2018-May-17 02:00N 50°28' E 000°55'816.1
2018-May-17 01:31N 50°25' E 000°43'916.2
2018-May-17 00:59N 50°23' E 000°30'816.3
2018-May-17 00:30N 50°21' E 000°19'816.7
2018-May-17 00:00N 50°18' E 000°06'10690.4
2018-May-17 00:00N 50°12' W 000°06'4 9.2 350 / 251024.6 5.4 11.0 9.014.0
2018-May-16 23:30N 50°16' W 000°07'918.2
2018-May-16 23:00N 50°15' W 000°21'1019.0
2018-May-16 22:30N 50°13' W 000°36'1019.8
2018-May-16 22:00N 50°11' W 000°51'1020.4
2018-May-16 21:31N 50°08' W 001°06'1020.9
2018-May-16 21:01N 50°05' W 001°21'6352.4
2018-May-16 21:00N 50°06' W 001°12'1734.4 360 / 181025.3 5.4 12.5 9.611.0
2018-May-16 20:30N 50°03' W 001°37'1121.4
2018-May-16 20:00N 50°00' W 001°54'1121.0
2018-May-16 19:29N 49°57' W 002°10'1219.9
2018-May-16 18:54N 49°54' W 002°27'819.2
2018-May-16 18:30N 49°51' W 002°39'918.9
2018-May-16 18:00N 49°49' W 002°52'177.1
2018-May-16 18:00N 49°48' W 002°54'816.7 320 / 101023.7 5.4 14.011.212.0
2018-May-16 17:31N 49°46' W 003°06'918.5
2018-May-16 17:00N 49°44' W 003°20'918.2
2018-May-16 16:30N 49°42' W 003°34'1018.0
2018-May-16 15:57N 49°40' W 003°49'2122.2
2018-May-16 15:00N 49°30' W 004°18'4314.4 040 / 161024.0 2.2 15.011.312.0
2018-May-16 12:00N 49°24' W 005°24'3913.0 360 / 281025.0 5.4 14.012.213.0
2018-May-16 09:00N 49°24' W 006°24'4314.4 360 / 371025.5 5.4 13.0 9.113.0
2018-May-16 06:00N 49°30' W 007°30'5518.2 010 / 281025.1 5.4 13.0 9.112.0
2018-May-16 03:00N 49°30' W 008°54'5117.0 010 / 351027.210.8 12.0 7.914.0
2018-May-16 00:00N 49°36' W 010°12'4314.3 350 / 351028.510.8 11.0 6.814.0
2018-May-15 21:00N 49°36' W 011°18'6622.0 360 / 401029.6 5.4 12.0 7.912.0
2018-May-15 18:00N 49°36' W 013°00'5116.9 360 / 371029.5 5.4 12.5 8.513.0
2018-May-15 15:00N 49°36' W 014°18'5819.4 350 / 241029.910.8 13.0 9.112.0
2018-May-15 12:00N 49°36' W 015°48'5518.3 340 / 261030.610.8 11.5 6.212.0
2018-May-15 09:00N 49°30' W 017°12'5819.5 330 / 231029.910.8 11.0 6.813.0
2018-May-15 06:00N 49°30' W 018°42'5117.0 350 / 231027.910.8 11.0 6.813.0
2018-May-15 03:00N 49°24' W 020°00'5919.6 330 / 221026.810.8 10.0 5.714.0
2018-May-15 00:00N 49°18' W 021°30'4715.8 330 / 251025.410.8 10.0 5.713.0
2018-May-14 21:00N 49°12' W 022°42'5919.7 320 / 281023.8 5.4 10.5 7.413.0
2018-May-14 18:00N 49°06' W 024°12'6822.7 330 / 201021.8 5.4 11.011.013.0
2018-May-14 15:00N 48°54' W 025°54'5317.6 340 / 41019.4 0.1 12.012.012.0
2018-May-14 12:00N 48°42' W 027°12'6019.9 270 / 81017.6 5.4 14.014.012.0
2018-May-14 09:00N 48°36' W 028°42'5317.7 350 / 151016.5 5.4 11.0 6.814.0
2018-May-14 06:00N 48°24' W 030°00'5919.6 350 / 131016.410.8 13.0 9.113.0
2018-May-14 03:00N 48°06' W 031°24'5417.9 010 / 101016.210.8 12.0 7.913.0
2018-May-14 00:00N 47°54' W 032°42'4615.3 300 / 161017.2 5.4 12.5 9.612.0
2018-May-13 21:00N 47°42' W 033°48'5919.8 320 / 151016.710.8 13.5 8.513.0
2018-May-13 18:00N 47°24' W 035°12'6822.5 260 / 171016.010.8 14.0 8.015.0
2018-May-13 15:00N 47°06' W 036°48'4314.2 340 / 61016.5 15.0 9.214.0
2018-May-13 12:00N 46°54' W 037°48'6622.1 340 / 61016.510.8 13.5 6.214.0
2018-May-13 09:00N 46°30' W 039°18'6120.2 290 / 121016.910.8 10.0 5.714.0
2018-May-13 06:00N 46°12' W 040°42'5919.8 300 / 121017.310.8 8.0 3.315.0
2018-May-13 03:00N 45°48' W 042°00'5016.5 270 / 121017.810.8 8.0 3.312.0
2018-May-13 00:00N 45°30' W 043°06'   270 / 181018.0 5.4 8.0 3.315.0
Track history (hours):
 
Tides and Currents Weather Stations Pressure Air Temp Water Temp Dewpoint Dewpoint Depression Visibility Wind Speed Wind Dir Waves Ship Positions

Endurance

Owner: TOTE Services, Inc., Jacksonville, FL. More information available from US FCC via Universal Licensing System and Coast Guard Vessel Documentation Center.

Last reported at 2018-May-22 21:00 UTC. Time now 2018-May-22 21:17 UTC.
Position N 49°19' W 005°25'.

Length 264 m; draft 8.3 m.

Type: Ship (hazmat cat B). MMSI: 366479000.

Date/timePositionNaut miles runAvg speedWind from/ knotsBaromVisibWave heightAir tempDewpointWater temp
2018-May-22 21:00N 49°19' W 005°25'816.9
2018-May-22 20:30N 49°21' W 005°13'1317.1
2018-May-22 19:45N 49°26' W 004°54'417.5
2018-May-22 19:30N 49°28' W 004°48'917.6
2018-May-22 19:00N 49°31' W 004°36'917.8
2018-May-22 18:30N 49°35' W 004°23'2218.1
2018-May-22 17:18N 49°43' W 003°52'518.1
2018-May-22 17:00N 49°46' W 003°45'917.9
2018-May-22 16:31N 49°49' W 003°32'917.7
2018-May-22 16:00N 49°53' W 003°19'917.4
2018-May-22 15:30N 49°56' W 003°06'917.0
2018-May-22 15:00N 49°59' W 002°54'816.5
2018-May-22 14:30N 50°01' W 002°42'1715.7
2018-May-22 13:25N 50°06' W 002°17'615.1
2018-May-22 13:00N 50°08' W 002°07'815.1
2018-May-22 12:30N 50°10' W 001°56'815.4
2018-May-22 12:01N 50°11' W 001°44'816.0
2018-May-22 11:31N 50°14' W 001°32'816.7
2018-May-22 11:00N 50°16' W 001°20'917.7
2018-May-22 10:30N 50°18' W 001°06'918.7
2018-May-22 10:00N 50°21' W 000°52'918.9
2018-May-22 09:30N 50°23' W 000°38'1019.0
2018-May-22 09:00N 50°26' W 000°24'8517.8
2018-May-22 09:00N 50°24' W 000°36'1836.5 160 / 41015.4 5.4 16.512.014.0
2018-May-22 08:30N 50°29' W 000°09'918.9
2018-May-22 08:00N 50°31' E 000°05'918.7
2018-May-22 07:30N 50°34' E 000°19'918.4
2018-May-22 07:00N 50°37' E 000°33'918.0
2018-May-22 06:30N 50°41' E 000°45'917.4
2018-May-22 06:00N 50°46' E 000°57'3186.0
2018-May-22 06:00N 50°48' E 001°00'812.5 080 / 81013.510.8 14.010.214.0
2018-May-22 05:22N 50°52' E 001°11'615.9
2018-May-22 05:00N 50°55' E 001°18'815.5
2018-May-22 04:30N 51°01' E 001°26'815.9
2018-May-22 04:00N 51°07' E 001°34'816.3
2018-May-22 03:30N 51°12' E 001°44'917.1
2018-May-22 03:00N 51°20' E 001°51'2174.3
2018-May-22 03:00N 51°18' E 001°48'1021.6 300 / 101012.210.8 14.010.214.0
2018-May-22 02:30N 51°24' E 002°01'917.5
2018-May-22 02:01N 51°21' E 002°14'1019.8
2018-May-22 01:30N 51°22' E 002°30'817.0
2018-May-22 01:00N 51°22' E 002°43'815.7
2018-May-22 00:30N 51°23' E 002°56'917.9
2018-May-21 23:59N 51°24' E 003°11'1018.9
2018-May-21 23:27N 51°25' E 003°26'714.5
2018-May-21 22:59N 51°26' E 003°37'611.4
2018-May-21 22:30N 51°23' E 003°44'714.5
2018-May-21 22:00N 51°22' E 003°55'5 9.6
2018-May-21 21:30N 51°25' E 004°02'510.7
2018-May-21 21:00N 51°24' E 004°11'510.5
2018-May-21 20:31N 51°20' E 004°16'3 6.5
2018-May-21 20:00N 51°17' E 004°15'0 0.0
2018-May-21 19:30N 51°17' E 004°15'0 0.0
2018-May-21 19:01N 51°17' E 004°15'1 1.0
2018-May-21 18:31N 51°16' E 004°14'0 0.6
2018-May-21 17:59N 51°16' E 004°14'0 0.0
2018-May-21 17:29N 51°16' E 004°14'0 0.0
2018-May-21 16:59N 51°16' E 004°14'0 0.0
2018-May-21 16:27N 51°16' E 004°14'0 0.0
2018-May-21 16:00N 51°16' E 004°14'0 0.0
2018-May-21 15:18N 51°16' E 004°14'0 0.0
2018-May-21 14:33N 51°16' E 004°14'0 0.0
2018-May-21 14:30N 51°16' E 004°14'0 0.0
2018-May-21 12:51N 51°16' E 004°14'0 0.0
2018-May-21 12:30N 51°16' E 004°14'0 0.0
2018-May-21 12:00N 51°16' E 004°14'0 0.0
2018-May-21 11:30N 51°16' E 004°14'0 0.0
2018-May-21 10:51N 51°16' E 004°14'0 0.0
2018-May-21 10:27N 51°16' E 004°14'0 0.0
2018-May-21 09:51N 51°16' E 004°14'0 0.0
2018-May-21 09:27N 51°16' E 004°14'0 0.0
2018-May-21 09:00N 51°16' E 004°14'0 0.0
2018-May-21 08:21N 51°16' E 004°14'0 0.0
2018-May-21 07:57N 51°16' E 004°14'0 0.0
2018-May-21 07:27N 51°16' E 004°14'0 0.0
2018-May-21 07:00N 51°16' E 004°14'0 0.0
2018-May-21 06:18N 51°16' E 004°14'0 0.0
2018-May-21 06:00N 51°16' E 004°14'0 0.0
2018-May-21 05:24N 51°16' E 004°14'0 0.0
2018-May-21 04:57N 51°16' E 004°14'0 0.0
2018-May-21 04:27N 51°16' E 004°14'0 0.0
2018-May-21 04:00N 51°16' E 004°14'0 0.0
2018-May-21 03:24N 51°16' E 004°14'0 0.0
2018-May-21 02:57N 51°16' E 004°14'0 0.0
2018-May-21 02:27N 51°16' E 004°14'0 0.0
2018-May-21 02:00N 51°16' E 004°14'0 0.0
2018-May-21 01:27N 51°16' E 004°14'0 0.0
2018-May-21 01:00N 51°16' E 004°14'0 0.0
2018-May-21 00:30N 51°16' E 004°14'0 0.0
2018-May-21 00:00N 51°16' E 004°14'0 0.0
2018-May-20 23:27N 51°16' E 004°14'0 0.0
2018-May-20 23:00N 51°16' E 004°14'0 0.0
2018-May-20 22:27N 51°16' E 004°14'0 0.0
2018-May-20 22:00N 51°16' E 004°14'0 0.0
2018-May-20 21:30N 51°16' E 004°14'0 0.0
2018-May-20 21:00N 51°16' E 004°14'0 0.0
2018-May-20 20:30N 51°16' E 004°14'0 0.0
2018-May-20 19:57N 51°16' E 004°14'0 0.0
2018-May-20 19:27N 51°16' E 004°14'0 0.0
2018-May-20 19:00N 51°16' E 004°14'0 0.0
2018-May-20 18:24N 51°16' E 004°14'0 0.0
2018-May-20 18:00N 51°16' E 004°14'0 0.0
2018-May-20 17:27N 51°16' E 004°14'0 0.0
2018-May-20 16:57N 51°16' E 004°14'0 0.0
2018-May-20 16:24N 51°16' E 004°14'0 0.0
2018-May-20 15:51N 51°16' E 004°14'0 0.0
2018-May-20 15:12N 51°16' E 004°14'0 0.0
2018-May-20 14:54N 51°16' E 004°14'0 0.0
2018-May-20 14:12N 51°16' E 004°14'0 0.0
2018-May-20 13:57N 51°16' E 004°14'0 0.0
2018-May-20 13:21N 51°16' E 004°14'0 0.0
2018-May-20 12:48N 51°16' E 004°14'0 0.0
2018-May-20 12:30N 51°16' E 004°14'0 0.0
2018-May-20 12:00N 51°16' E 004°14'0 0.0
2018-May-20 11:27N 51°16' E 004°14'0 0.0
2018-May-20 10:48N 51°16' E 004°14'0 0.0
2018-May-20 10:30N 51°16' E 004°14'0 0.0
2018-May-20 09:57N 51°16' E 004°14'0 0.0
2018-May-20 09:12N 51°16' E 004°14'0 0.0
2018-May-20 08:51N 51°16' E 004°14'0 0.0
2018-May-20 08:21N 51°16' E 004°14'0 0.0
2018-May-20 07:45N 51°16' E 004°14'0 0.0
2018-May-20 07:21N 51°16' E 004°14'0 0.0
2018-May-20 06:57N 51°16' E 004°14'0 0.0
2018-May-20 06:18N 51°16' E 004°14'0 0.0
2018-May-20 05:57N 51°16' E 004°14'0 0.0
2018-May-20 05:30N 51°16' E 004°14'0 0.0
2018-May-20 05:00N 51°16' E 004°14'0 0.0
2018-May-20 04:30N 51°16' E 004°14'0 0.0
2018-May-20 04:00N 51°16' E 004°14'0 0.0
2018-May-20 03:30N 51°16' E 004°14'0 0.0
2018-May-20 03:00N 51°16' E 004°14'0 0.0
2018-May-20 02:27N 51°16' E 004°14'0 0.0
2018-May-20 02:00N 51°16' E 004°14'0 0.0
2018-May-20 01:30N 51°16' E 004°14'0 0.0
2018-May-20 00:57N 51°16' E 004°14'0 0.0
2018-May-20 00:30N 51°16' E 004°14'0 0.0
2018-May-20 00:00N 51°16' E 004°14'0 0.0
2018-May-19 23:24N 51°16' E 004°14'0 0.0
2018-May-19 22:54N 51°16' E 004°14'0 0.0
2018-May-19 22:30N 51°16' E 004°14'0 0.0
2018-May-19 21:57N 51°16' E 004°14'0 0.0
2018-May-19 21:30N 51°16' E 004°14'0 0.0
2018-May-19 21:00N 51°16' E 004°14'0 0.0
2018-May-19 20:27N 51°16' E 004°14'0 0.0
2018-May-19 19:45N 51°16' E 004°14'0 0.0
2018-May-19 19:24N 51°16' E 004°14'0 0.0
2018-May-19 19:00N 51°16' E 004°14'0 0.0
2018-May-19 18:30N 51°16' E 004°14'0 0.0
2018-May-19 18:00N 51°16' E 004°14'0 0.0
2018-May-19 17:24N 51°16' E 004°14'0 0.0
2018-May-19 17:00N 51°16' E 004°14'0 0.0
2018-May-19 16:30N 51°16' E 004°14'0 0.0
2018-May-19 15:57N 51°16' E 004°14'0 0.0
2018-May-19 15:30N 51°16' E 004°14'0 0.0
2018-May-19 14:57N 51°16' E 004°14'0 0.0
2018-May-19 14:24N 51°16' E 004°14'0 0.0
2018-May-19 14:00N 51°16' E 004°14'0 0.0
2018-May-19 13:30N 51°16' E 004°14'0 0.0
2018-May-19 12:42N 51°16' E 004°14'0 0.0
2018-May-19 12:27N 51°16' E 004°14'0 0.0
2018-May-19 12:00N 51°16' E 004°14'0 0.0
2018-May-19 11:30N 51°16' E 004°14'0 0.0
2018-May-19 11:00N 51°16' E 004°14'0 0.0
2018-May-19 10:27N 51°16' E 004°14'0 0.0
2018-May-19 10:00N 51°16' E 004°14'0 0.0
2018-May-19 09:30N 51°16' E 004°14'0 0.0
2018-May-19 09:00N 51°16' E 004°14'0 0.0
2018-May-19 08:24N 51°16' E 004°14'0 0.0
2018-May-19 08:00N 51°16' E 004°14'0 0.0
2018-May-19 07:12N 51°16' E 004°14'0 0.0
2018-May-19 06:54N 51°16' E 004°14'0 0.0
2018-May-19 06:24N 51°16' E 004°14'0 0.0
2018-May-19 06:00N 51°16' E 004°14'0 0.0
2018-May-19 05:30N 51°16' E 004°14'0 0.0
2018-May-19 05:00N 51°16' E 004°14'0 0.0
2018-May-19 04:27N 51°16' E 004°14'0 0.0
2018-May-19 04:00N 51°16' E 004°14'0 0.0
2018-May-19 03:30N 51°16' E 004°14'0 0.0
2018-May-19 02:57N 51°16' E 004°14'0 0.0
2018-May-19 02:27N 51°16' E 004°14'0 0.0
2018-May-19 02:00N 51°16' E 004°14'0 0.0
2018-May-19 01:30N 51°16' E 004°14'0 0.0
2018-May-19 00:54N 51°16' E 004°14'0 0.0
2018-May-19 00:30N 51°16' E 004°14'0 0.0
2018-May-19 00:00N 51°16' E 004°14'0 0.0
2018-May-18 23:30N 51°16' E 004°14'0 0.0
2018-May-18 23:00N 51°16' E 004°14'0 0.0
2018-May-18 22:24N 51°16' E 004°14'0 0.0
2018-May-18 21:54N 51°16' E 004°14'0 0.0
2018-May-18 21:30N 51°16' E 004°14'0 0.0
2018-May-18 20:51N 51°16' E 004°14'0 0.0
2018-May-18 20:30N 51°16' E 004°14'0 0.0
2018-May-18 20:00N 51°16' E 004°14'0 0.0
2018-May-18 19:21N 51°16' E 004°14'0 0.0
2018-May-18 19:00N 51°16' E 004°14'0 0.0
2018-May-18 18:27N 51°16' E 004°14'0 0.0
2018-May-18 18:00N 51°16' E 004°14'0 0.0
2018-May-18 17:30N 51°16' E 004°14'0 0.0
2018-May-18 16:42N 51°16' E 004°14'0 0.0
2018-May-18 16:24N 51°16' E 004°14'0 0.0
2018-May-18 15:57N 51°16' E 004°14'0 0.0
2018-May-18 15:27N 51°16' E 004°14'0 0.0
2018-May-18 15:00N 51°16' E 004°14'0 0.0
2018-May-18 14:30N 51°16' E 004°14'0 0.0
2018-May-18 14:00N 51°16' E 004°14'0 0.0
2018-May-18 13:30N 51°16' E 004°14'0 0.0
2018-May-18 12:39N 51°16' E 004°14'0 0.0
2018-May-18 12:30N 51°16' E 004°14'0 0.0
2018-May-18 11:39N 51°16' E 004°14'0 0.0
2018-May-18 11:30N 51°16' E 004°14'0 0.0
2018-May-18 11:00N 51°16' E 004°14'0 0.0
2018-May-18 10:30N 51°16' E 004°14'0 0.0
2018-May-18 09:57N 51°16' E 004°14'0 0.0
2018-May-18 09:30N 51°16' E 004°14'0 0.0
2018-May-18 08:57N 51°16' E 004°14'0 0.1
2018-May-18 08:30N 51°16' E 004°14'0 0.1
2018-May-18 08:00N 51°16' E 004°14'0 0.0
2018-May-18 07:30N 51°16' E 004°14'0 0.0
2018-May-18 07:00N 51°16' E 004°14'0 0.0
2018-May-18 06:30N 51°16' E 004°14'0 0.0
2018-May-18 06:00N 51°16' E 004°14'0 0.0
2018-May-18 05:30N 51°16' E 004°14'0 0.0
2018-May-18 05:00N 51°16' E 004°14'0 0.0
2018-May-18 04:30N 51°16' E 004°14'0 0.0
2018-May-18 04:00N 51°16' E 004°14'0 0.0
2018-May-18 03:30N 51°16' E 004°14'0 0.0
2018-May-18 03:00N 51°16' E 004°14'0 0.0
2018-May-18 02:30N 51°16' E 004°14'0 0.0
2018-May-18 01:57N 51°16' E 004°14'0 0.0
2018-May-18 01:30N 51°16' E 004°14'0 0.0
2018-May-18 01:00N 51°16' E 004°14'0 0.0
2018-May-18 00:30N 51°16' E 004°14'0 0.0
2018-May-18 00:00N 51°16' E 004°14'0 0.0
2018-May-17 23:30N 51°16' E 004°14'0 0.0
2018-May-17 23:00N 51°16' E 004°14'0 0.0
2018-May-17 22:27N 51°16' E 004°14'0 0.0
2018-May-17 22:00N 51°16' E 004°14'0 0.0
2018-May-17 21:27N 51°16' E 004°14'0 0.0
2018-May-17 21:00N 51°16' E 004°14'0 0.0
2018-May-17 20:30N 51°16' E 004°14'0 0.0
2018-May-17 20:00N 51°16' E 004°14'0 0.0
2018-May-17 19:30N 51°16' E 004°14'0 0.0
2018-May-17 19:00N 51°16' E 004°14'0 0.0
2018-May-17 18:30N 51°16' E 004°14'1 2.0
2018-May-17 18:00N 51°16' E 004°16'1 1.2
2018-May-17 17:30N 51°16' E 004°17'0 0.0
2018-May-17 17:01N 51°16' E 004°17'0 0.8
2018-May-17 16:30N 51°16' E 004°17'2 3.9
2018-May-17 15:59N 51°18' E 004°17'5 9.7
2018-May-17 15:30N 51°22' E 004°13'4 7.6
2018-May-17 15:00N 51°22' E 004°07'612.1
2018-May-17 14:30N 51°26' E 004°00'815.0
2018-May-17 14:00N 51°21' E 003°52'713.0
2018-May-17 13:30N 51°24' E 003°43'4 8.6
2018-May-17 13:00N 51°25' E 003°36'4 8.4
2018-May-17 12:30N 51°25' E 003°29'4 8.1
2018-May-17 12:00N 51°24' E 003°23'5 9.4
2018-May-17 11:30N 51°25' E 003°16'612.6
2018-May-17 11:00N 51°24' E 003°05'510.6
2018-May-17 10:30N 51°23' E 002°57'611.2
2018-May-17 10:00N 51°22' E 002°48'510.9
2018-May-17 09:30N 51°22' E 002°40'510.3
2018-May-17 09:00N 51°22' E 002°31'3 6.5
2018-May-17 08:30N 51°21' E 002°26'5 9.3
2018-May-17 08:00N 51°19' E 002°20'510.2
2018-May-17 07:30N 51°16' E 002°13'510.5
2018-May-17 07:00N 51°14' E 002°06'510.6
2018-May-17 06:30N 51°11' E 001°58'510.8
2018-May-17 06:00N 51°08' E 001°51'6629.0
2018-May-17 06:00N 51°06' E 001°42'2 5.0 030 / 261025.5 5.4 11.0 6.812.0
2018-May-17 05:30N 51°04' E 001°45'511.0
2018-May-17 05:00N 51°00' E 001°39'611.4
2018-May-17 04:29N 50°56' E 001°33'812.1
2018-May-17 03:51N 50°49' E 001°26'716.5
2018-May-17 03:27N 50°43' E 001°23'1737.3
2018-May-17 03:00N 50°30' E 001°06'8107.6 010 / 351023.9 5.4 11.0 6.812.0
2018-May-17 02:55N 50°37' E 001°14'816.4
2018-May-17 02:25N 50°31' E 001°04'716.2
2018-May-17 02:00N 50°28' E 000°55'816.1
2018-May-17 01:31N 50°25' E 000°43'916.2
2018-May-17 00:59N 50°23' E 000°30'816.3
2018-May-17 00:30N 50°21' E 000°19'816.7
2018-May-17 00:00N 50°18' E 000°06'10690.4
2018-May-17 00:00N 50°12' W 000°06'4 9.2 350 / 251024.6 5.4 11.0 9.014.0
2018-May-16 23:30N 50°16' W 000°07'918.2
2018-May-16 23:00N 50°15' W 000°21'1019.0
2018-May-16 22:30N 50°13' W 000°36'1019.8
2018-May-16 22:00N 50°11' W 000°51'1020.4
2018-May-16 21:31N 50°08' W 001°06'1020.9
2018-May-16 21:01N 50°05' W 001°21'6352.4
2018-May-16 21:00N 50°06' W 001°12'1734.4 360 / 181025.3 5.4 12.5 9.611.0
2018-May-16 20:30N 50°03' W 001°37'1121.4
2018-May-16 20:00N 50°00' W 001°54'1121.0
2018-May-16 19:29N 49°57' W 002°10'1219.9
2018-May-16 18:54N 49°54' W 002°27'819.2
2018-May-16 18:30N 49°51' W 002°39'918.9
2018-May-16 18:00N 49°49' W 002°52'177.1
2018-May-16 18:00N 49°48' W 002°54'816.7 320 / 101023.7 5.4 14.011.212.0
2018-May-16 17:31N 49°46' W 003°06'918.5
2018-May-16 17:00N 49°44' W 003°20'918.2
2018-May-16 16:30N 49°42' W 003°34'1018.0
2018-May-16 15:57N 49°40' W 003°49'2122.2
2018-May-16 15:00N 49°30' W 004°18'4314.4 040 / 161024.0 2.2 15.011.312.0
2018-May-16 12:00N 49°24' W 005°24'3913.0 360 / 281025.0 5.4 14.012.213.0
2018-May-16 09:00N 49°24' W 006°24'4314.4 360 / 371025.5 5.4 13.0 9.113.0
2018-May-16 06:00N 49°30' W 007°30'5518.2 010 / 281025.1 5.4 13.0 9.112.0
2018-May-16 03:00N 49°30' W 008°54'5117.0 010 / 351027.210.8 12.0 7.914.0
2018-May-16 00:00N 49°36' W 010°12'4314.3 350 / 351028.510.8 11.0 6.814.0
2018-May-15 21:00N 49°36' W 011°18'6622.0 360 / 401029.6 5.4 12.0 7.912.0
2018-May-15 18:00N 49°36' W 013°00'5116.9 360 / 371029.5 5.4 12.5 8.513.0
2018-May-15 15:00N 49°36' W 014°18'5819.4 350 / 241029.910.8 13.0 9.112.0
2018-May-15 12:00N 49°36' W 015°48'5518.3 340 / 261030.610.8 11.5 6.212.0
2018-May-15 09:00N 49°30' W 017°12'5819.5 330 / 231029.910.8 11.0 6.813.0
2018-May-15 06:00N 49°30' W 018°42'5117.0 350 / 231027.910.8 11.0 6.813.0
2018-May-15 03:00N 49°24' W 020°00'5919.6 330 / 221026.810.8 10.0 5.714.0
2018-May-15 00:00N 49°18' W 021°30'4715.8 330 / 251025.410.8 10.0 5.713.0
2018-May-14 21:00N 49°12' W 022°42'5919.7 320 / 281023.8 5.4 10.5 7.413.0
2018-May-14 18:00N 49°06' W 024°12'6822.7 330 / 201021.8 5.4 11.011.013.0
2018-May-14 15:00N 48°54' W 025°54'5317.6 340 / 41019.4 0.1 12.012.012.0
2018-May-14 12:00N 48°42' W 027°12'6019.9 270 / 81017.6 5.4 14.014.012.0
2018-May-14 09:00N 48°36' W 028°42'5317.7 350 / 151016.5 5.4 11.0 6.814.0
2018-May-14 06:00N 48°24' W 030°00'5919.6 350 / 131016.410.8 13.0 9.113.0
2018-May-14 03:00N 48°06' W 031°24'5417.9 010 / 101016.210.8 12.0 7.913.0
2018-May-14 00:00N 47°54' W 032°42'4615.3 300 / 161017.2 5.4 12.5 9.612.0
2018-May-13 21:00N 47°42' W 033°48'5919.8 320 / 151016.710.8 13.5 8.513.0
2018-May-13 18:00N 47°24' W 035°12'6822.5 260 / 171016.010.8 14.0 8.015.0
2018-May-13 15:00N 47°06' W 036°48'4314.2 340 / 61016.5 15.0 9.214.0
2018-May-13 12:00N 46°54' W 037°48'6622.1 340 / 61016.510.8 13.5 6.214.0
2018-May-13 09:00N 46°30' W 039°18'6120.2 290 / 121016.910.8 10.0 5.714.0
2018-May-13 06:00N 46°12' W 040°42'5919.8 300 / 121017.310.8 8.0 3.315.0
2018-May-13 03:00N 45°48' W 042°00'5016.5 270 / 121017.810.8 8.0 3.312.0
2018-May-13 00:00N 45°30' W 043°06'   270 / 181018.0 5.4 8.0 3.315.0

Dump ship's entire track history